createdAt,value
2022-08-18T00:00:23.851Z,99974.00
2022-08-18T00:03:00.778Z,99979.95
2022-08-18T00:05:30.874Z,99979.81
2022-08-18T00:08:03.453Z,99976.72
2022-08-18T00:10:35.994Z,99978.00
2022-08-18T00:13:08.035Z,99985.34
2022-08-18T00:15:41.718Z,99984.94
2022-08-18T00:18:13.995Z,99996.77
2022-08-18T00:20:46.449Z,100005.92
2022-08-18T00:23:18.647Z,99993.13
2022-08-18T00:25:50.747Z,99998.75
2022-08-18T00:28:23.955Z,100001.73
2022-08-18T00:30:56.109Z,100002.87
2022-08-18T00:33:28.205Z,100001.30
2022-08-18T00:36:00.401Z,100007.91
2022-08-18T00:38:32.811Z,100009.77
2022-08-18T00:41:05.678Z,100013.43
2022-08-18T00:43:46.590Z,100012.71
2022-08-18T00:46:24.533Z,100012.86
2022-08-18T00:48:57.160Z,100009.19
2022-08-18T00:51:33.136Z,100008.36
2022-08-18T00:54:09.086Z,100004.98
2022-08-18T00:56:44.028Z,100000.77
2022-08-18T00:59:31.455Z,100004.16
2022-08-18T01:02:06.395Z,100006.83
2022-08-18T01:04:47.286Z,100010.31
2022-08-18T01:07:25.186Z,100005.97
2022-08-18T01:10:00.193Z,100008.64
2022-08-18T01:12:45.151Z,100016.80
2022-08-18T01:15:08.210Z,100022.14
2022-08-18T01:18:00.553Z,100028.47
2022-08-18T01:20:59.211Z,100025.66
2022-08-18T01:23:32.439Z,100019.60
2022-08-18T01:26:04.721Z,100017.79
2022-08-18T01:28:42.077Z,100011.45
2022-08-18T01:31:16.718Z,100008.09
2022-08-18T01:33:48.744Z,100010.05
2022-08-18T01:36:22.973Z,100012.04
2022-08-18T01:38:55.461Z,100008.79
2022-08-18T01:41:30.778Z,100008.96
2022-08-18T01:44:03.077Z,100003.62
2022-08-18T01:46:36.852Z,100004.89
2022-08-18T01:49:10.715Z,100009.78
2022-08-18T01:51:43.347Z,100005.88
2022-08-18T01:54:16.763Z,100006.39
2022-08-18T01:56:49.517Z,100016.80
2022-08-18T01:59:21.966Z,100020.01
2022-08-18T02:01:55.860Z,100017.92
2022-08-18T02:04:37.320Z,100026.33
2022-08-18T02:07:09.106Z,100024.92
2022-08-18T02:09:43.213Z,100033.36
2022-08-18T02:12:16.931Z,100031.09
2022-08-18T02:14:50.867Z,100038.55
2022-08-18T02:17:24.116Z,100037.13
2022-08-18T02:19:56.817Z,100037.40
2022-08-18T02:22:29.022Z,100034.73
2022-08-18T02:25:01.441Z,100033.19
2022-08-18T02:27:33.744Z,100044.84
2022-08-18T02:30:08.922Z,100045.66
2022-08-18T02:32:41.312Z,100040.50
2022-08-18T02:35:13.931Z,100043.30
2022-08-18T02:37:49.364Z,100052.98
2022-08-18T02:40:21.808Z,100044.84
2022-08-18T02:42:54.346Z,100046.52
2022-08-18T02:45:27.214Z,100052.84
2022-08-18T02:47:59.232Z,100050.05
2022-08-18T02:50:31.643Z,100055.25
2022-08-18T02:53:04.495Z,100057.06
2022-08-18T02:55:36.752Z,100058.47
2022-08-18T02:58:09.491Z,100062.69
2022-08-18T03:00:43.049Z,100074.91
2022-08-18T03:03:15.376Z,100069.04
2022-08-18T03:05:47.840Z,100063.14
2022-08-18T03:08:19.860Z,100063.30
2022-08-18T03:10:55.484Z,100063.71
2022-08-18T03:13:27.510Z,100065.41
2022-08-18T03:16:00.044Z,100068.22
2022-08-18T03:18:33.578Z,100061.37
2022-08-18T03:21:18.355Z,100064.33
2022-08-18T03:24:00.282Z,100063.61
2022-08-18T03:26:26.209Z,100067.27
2022-08-18T03:29:00.256Z,100065.73
2022-08-18T03:31:32.609Z,100054.45
2022-08-18T03:34:06.232Z,100052.62
2022-08-18T03:36:38.649Z,100045.70
2022-08-18T03:39:13.499Z,100041.47
2022-08-18T03:41:58.451Z,100054.09
2022-08-18T03:44:20.588Z,100048.22
2022-08-18T03:46:52.864Z,100055.64
2022-08-18T03:49:26.698Z,100050.69
2022-08-18T03:52:03.798Z,100059.97
2022-08-18T03:54:37.952Z,100054.73
2022-08-18T03:57:11.752Z,100056.69
2022-08-18T03:59:44.082Z,100059.16
2022-08-18T04:02:18.348Z,100061.25
2022-08-18T04:04:51.331Z,100057.82
2022-08-18T04:07:24.254Z,100058.63
2022-08-18T04:09:56.419Z,100061.25
2022-08-18T04:12:30.838Z,100045.44
2022-08-18T04:15:03.622Z,100055.55
2022-08-18T04:17:36.009Z,100042.17
2022-08-18T04:20:11.884Z,100048.98
2022-08-18T04:22:45.306Z,100058.41
2022-08-18T04:25:17.154Z,100064.97
2022-08-18T04:27:49.399Z,100059.86
2022-08-18T04:30:21.638Z,100058.56
2022-08-18T04:35:24.346Z,100055.85
2022-08-18T04:37:56.650Z,100048.22
2022-08-18T04:40:29.564Z,100051.00
2022-08-18T04:43:05.136Z,100056.20
2022-08-18T04:45:38.885Z,100058.03
2022-08-18T04:48:11.009Z,100060.08
2022-08-18T04:50:45.247Z,100051.13
2022-08-18T04:53:35.319Z,100065.27
2022-08-18T04:56:08.501Z,100062.48
2022-08-18T04:58:40.705Z,100064.22
2022-08-18T05:01:13.657Z,100067.63
2022-08-18T05:03:50.064Z,100064.98
2022-08-18T05:06:23.606Z,100065.92
2022-08-18T05:08:59.521Z,100077.55
2022-08-18T05:11:34.926Z,100070.87
2022-08-18T05:14:09.658Z,100071.37
2022-08-18T05:16:48.147Z,100075.22
2022-08-18T05:19:16.633Z,100077.55
2022-08-18T05:21:52.406Z,100073.86
2022-08-18T05:24:26.777Z,100068.18
2022-08-18T05:26:59.554Z,100072.89
2022-08-18T05:29:45.771Z,100072.58
2022-08-18T05:32:37.373Z,100076.28
2022-08-18T05:34:50.363Z,100069.97
2022-08-18T05:37:35.784Z,100071.52
2022-08-18T05:40:11.558Z,100066.67
2022-08-18T05:42:45.481Z,100067.61
2022-08-18T05:45:19.514Z,100063.41
2022-08-18T05:47:53.233Z,100068.31
2022-08-18T05:50:27.098Z,100066.14
2022-08-18T05:53:03.316Z,100064.64
2022-08-18T05:56:06.665Z,100064.80
2022-08-18T05:58:45.771Z,100069.56
2022-08-18T06:01:21.179Z,100074.74
2022-08-18T06:03:59.854Z,100072.41
2022-08-18T06:06:34.059Z,100071.55
2022-08-18T06:09:31.049Z,100074.23
2022-08-18T06:12:30.172Z,100079.59
2022-08-18T06:15:06.392Z,100083.45
2022-08-18T06:17:48.316Z,100080.03
2022-08-18T06:20:32.657Z,100075.27
2022-08-18T06:23:31.510Z,100082.23
2022-08-18T06:26:24.769Z,100077.94
2022-08-18T06:29:17.928Z,100071.43
2022-08-18T06:31:52.946Z,100069.89
2022-08-18T06:34:34.049Z,100073.24
2022-08-18T06:37:21.279Z,100073.31
2022-08-18T06:39:54.136Z,100077.67
2022-08-18T06:42:29.855Z,100084.20
2022-08-18T06:45:08.406Z,100080.98
2022-08-18T06:48:03.477Z,100082.48
2022-08-18T06:50:39.686Z,100085.92
2022-08-18T06:53:25.927Z,100086.58
2022-08-18T06:55:49.651Z,100081.59
2022-08-18T06:58:24.860Z,100085.58
2022-08-18T07:01:08.142Z,100076.36
2022-08-18T07:03:46.704Z,100085.13
2022-08-18T07:06:25.602Z,100084.27
2022-08-18T07:09:17.447Z,100081.23
2022-08-18T07:12:11.014Z,100092.89
2022-08-18T07:14:49.755Z,100105.09
2022-08-18T07:17:42.318Z,100098.07
2022-08-18T07:20:10.641Z,100097.50
2022-08-18T07:23:00.718Z,100094.42
2022-08-18T07:25:45.064Z,100089.47
2022-08-18T07:28:37.199Z,100097.22
2022-08-18T07:31:19.171Z,100093.34
2022-08-18T07:33:56.073Z,100094.33
2022-08-18T07:36:30.988Z,100089.70
2022-08-18T07:39:09.085Z,100089.89
2022-08-18T07:41:50.607Z,100095.31
2022-08-18T07:44:43.472Z,100091.56
2022-08-18T07:47:21.403Z,100093.61
2022-08-18T07:50:16.921Z,100084.48
2022-08-18T07:52:43.950Z,100086.15
2022-08-18T07:55:30.198Z,100083.44
2022-08-18T07:58:25.964Z,100089.89
2022-08-18T08:01:01.832Z,100089.84
2022-08-18T08:03:37.819Z,100092.07
2022-08-18T08:06:31.080Z,100088.73
2022-08-18T08:09:15.554Z,100090.41
2022-08-18T08:12:23.877Z,100094.02
2022-08-18T08:14:59.658Z,100085.24
2022-08-18T08:17:36.645Z,100090.84
2022-08-18T08:20:35.889Z,100091.94
2022-08-18T08:23:18.001Z,100100.72
2022-08-18T08:25:59.029Z,100093.47
2022-08-18T08:28:40.636Z,100096.89
2022-08-18T08:31:36.342Z,100090.25
2022-08-18T08:34:05.305Z,100097.17
2022-08-18T08:36:37.386Z,100092.22
2022-08-18T08:39:12.446Z,100085.63
2022-08-18T08:42:31.596Z,100086.91
2022-08-18T08:44:53.380Z,100087.38
2022-08-18T08:47:23.375Z,100083.00
2022-08-18T08:50:00.653Z,100087.38
2022-08-18T08:52:57.240Z,100076.73
2022-08-18T08:55:32.549Z,100078.20
2022-08-18T08:58:23.216Z,100081.77
2022-08-18T09:00:58.184Z,100073.30
2022-08-18T09:03:39.152Z,100074.37
2022-08-18T09:06:14.169Z,100086.69
2022-08-18T09:09:10.325Z,100080.22
2022-08-18T09:11:51.908Z,100080.03
2022-08-18T09:14:46.924Z,100083.81
2022-08-18T09:17:34.197Z,100083.42
2022-08-18T09:20:29.191Z,100074.70
2022-08-18T09:23:07.227Z,100083.69
2022-08-18T09:25:45.422Z,100079.73
2022-08-18T09:28:24.847Z,100075.81
2022-08-18T09:31:09.258Z,100082.31
2022-08-18T09:33:45.807Z,100075.84
2022-08-18T09:36:54.147Z,100079.85
2022-08-18T09:39:56.525Z,100074.91
2022-08-18T09:45:35.597Z,100072.08
2022-08-18T09:51:20.869Z,100073.55
2022-08-18T09:53:58.061Z,100079.59
2022-08-18T09:56:55.794Z,100063.76
2022-08-18T09:59:49.139Z,100078.80
2022-08-18T10:02:32.248Z,100067.94
2022-08-18T10:05:22.605Z,100071.72
2022-08-18T10:08:09.929Z,100076.30
2022-08-18T10:11:01.371Z,100065.86
2022-08-18T10:13:51.017Z,100073.40
2022-08-18T10:16:46.191Z,100069.62
2022-08-18T10:19:09.379Z,100075.50
2022-08-18T10:21:59.443Z,100067.76
2022-08-18T10:24:46.427Z,100060.44
2022-08-18T10:27:36.917Z,100065.45
2022-08-18T10:30:12.265Z,100086.12
2022-08-18T10:32:54.138Z,100067.96
2022-08-18T10:35:38.752Z,100066.70
2022-08-18T10:38:18.375Z,100069.61
2022-08-18T10:41:10.052Z,100052.07
2022-08-18T10:43:57.645Z,100061.46
2022-08-18T10:46:26.649Z,100060.01
2022-08-18T10:49:04.446Z,100049.16
2022-08-18T10:51:57.850Z,100067.96
2022-08-18T10:54:51.989Z,100060.63
2022-08-18T10:57:21.740Z,100047.70
2022-08-18T11:00:07.492Z,100044.14
2022-08-18T11:03:13.874Z,100056.70
2022-08-18T11:05:33.362Z,100048.77
2022-08-18T11:08:15.983Z,100047.92
2022-08-18T11:11:32.858Z,100054.61
2022-08-18T11:13:39.911Z,100045.85
2022-08-18T11:16:24.758Z,100047.52
2022-08-18T11:19:06.387Z,100038.32
2022-08-18T11:21:43.468Z,100032.48
2022-08-18T11:24:25.002Z,100039.78
2022-08-18T11:27:03.240Z,100041.88
2022-08-18T11:29:38.184Z,100039.38
2022-08-18T11:32:31.224Z,100047.34
2022-08-18T11:35:10.915Z,100040.44
2022-08-18T11:37:53.255Z,100040.09
2022-08-18T11:46:19.162Z,100042.01
2022-08-18T11:48:54.300Z,100031.96
2022-08-18T11:51:29.110Z,100031.91
2022-08-18T11:54:16.079Z,100044.48
2022-08-18T11:56:48.661Z,100030.98
2022-08-18T11:59:53.063Z,100046.06
2022-08-18T12:02:08.891Z,100036.27
2022-08-18T12:04:43.880Z,100033.34
2022-08-18T12:07:28.240Z,100029.55
2022-08-18T12:10:26.118Z,100034.87
2022-08-18T12:13:03.409Z,100035.23
2022-08-18T12:18:11.234Z,100021.13
2022-08-18T12:20:45.557Z,100016.46
2022-08-18T12:23:19.400Z,100004.28
2022-08-18T12:25:53.512Z,100019.87
2022-08-18T12:28:28.431Z,100015.23
2022-08-18T12:31:02.154Z,100024.83
2022-08-18T12:33:48.332Z,100017.66
2022-08-18T12:36:11.199Z,100021.31
2022-08-18T12:38:52.281Z,100013.80
2022-08-18T12:41:23.916Z,100018.06
2022-08-18T12:43:58.488Z,100010.41
2022-08-18T12:46:31.717Z,100011.88
2022-08-18T12:49:06.496Z,100008.05
2022-08-18T12:51:39.568Z,100000.00
2022-08-18T12:54:12.544Z,100007.15
2022-08-18T12:56:48.632Z,100006.66
2022-08-18T12:59:21.881Z,99996.91
2022-08-18T13:01:58.808Z,100001.98
2022-08-18T13:04:30.935Z,100011.39
2022-08-18T13:07:05.955Z,100000.84
2022-08-18T13:09:47.971Z,99985.13
2022-08-18T13:12:16.155Z,100000.47
2022-08-18T13:14:51.129Z,100009.02
2022-08-18T13:17:30.573Z,99994.92
2022-08-18T13:19:58.267Z,99993.41
2022-08-18T13:22:32.172Z,99996.86
2022-08-18T13:25:07.452Z,99983.42
2022-08-18T13:27:45.107Z,99979.88
2022-08-18T13:30:30.131Z,99977.39
2022-08-18T13:32:59.007Z,99980.87
2022-08-18T13:35:30.175Z,99983.37
2022-08-18T13:38:03.203Z,99978.21
2022-08-18T13:40:35.411Z,99981.56
2022-08-18T13:43:09.212Z,99982.33
2022-08-18T13:45:44.006Z,99984.14
2022-08-18T13:48:17.311Z,99973.72
2022-08-18T13:50:52.855Z,99982.78
2022-08-18T13:53:27.273Z,99982.08
2022-08-18T13:55:59.645Z,99975.62
2022-08-18T13:58:32.625Z,99977.49
2022-08-18T14:01:42.039Z,99979.04
2022-08-18T14:03:47.221Z,99982.59
2022-08-18T14:06:22.887Z,99977.45
2022-08-18T14:08:55.985Z,99989.30
2022-08-18T14:11:32.871Z,99974.88
2022-08-18T14:14:06.417Z,99979.80
2022-08-18T14:16:42.394Z,99975.66
2022-08-18T14:19:32.990Z,99990.53
2022-08-18T14:22:25.417Z,99985.55
2022-08-18T14:25:15.337Z,99981.31
2022-08-18T14:27:56.976Z,99977.22
2022-08-18T14:30:23.690Z,99982.70
2022-08-18T14:32:58.186Z,99994.13
2022-08-18T14:36:04.722Z,99991.05
2022-08-18T14:38:07.319Z,99999.45
2022-08-18T14:40:43.826Z,99996.50
2022-08-18T14:43:21.549Z,99988.22
2022-08-18T14:45:58.046Z,99988.66
2022-08-18T14:48:30.197Z,99988.56
2022-08-18T14:51:02.972Z,99987.55
2022-08-18T14:53:38.129Z,100007.69
2022-08-18T14:56:12.505Z,99992.17
2022-08-18T14:58:46.102Z,99992.05
2022-08-18T15:01:20.347Z,99995.51
2022-08-18T15:03:55.149Z,99993.16
2022-08-18T15:06:27.461Z,99998.00
2022-08-18T15:08:59.562Z,99993.27
2022-08-18T15:11:31.935Z,99998.08
2022-08-18T15:14:05.719Z,100002.09
2022-08-18T15:16:38.683Z,99998.81
2022-08-18T15:19:58.854Z,100003.77
2022-08-18T15:22:03.687Z,99999.08
2022-08-18T15:24:55.125Z,99996.02
2022-08-18T15:27:42.328Z,100004.78
2022-08-18T15:30:19.372Z,100006.13
2022-08-18T15:32:52.065Z,100005.60
2022-08-18T15:35:24.772Z,100012.91
2022-08-18T15:37:57.607Z,100013.50
2022-08-18T15:40:35.794Z,100011.90
2022-08-18T15:43:10.067Z,100026.83
2022-08-18T15:45:51.003Z,100017.89
2022-08-18T15:48:23.669Z,100018.50
2022-08-18T15:50:56.900Z,100018.72
2022-08-18T15:53:30.240Z,100025.22
2022-08-18T15:56:04.246Z,100014.53
2022-08-18T15:58:37.753Z,100026.41
2022-08-18T16:01:29.849Z,100023.27
2022-08-18T16:03:48.922Z,100023.24
2022-08-18T16:06:27.558Z,100019.62
2022-08-18T16:08:58.640Z,100024.81
2022-08-18T16:11:31.456Z,100026.63
2022-08-18T16:14:03.890Z,100024.48
2022-08-18T16:16:36.720Z,100024.20
2022-08-18T16:19:10.466Z,100028.70
2022-08-18T16:21:42.723Z,100026.55
2022-08-18T16:24:18.257Z,100035.02
2022-08-18T16:26:52.111Z,100033.93
2022-08-18T16:29:24.667Z,100031.38
2022-08-18T16:31:57.347Z,100041.22
2022-08-18T16:34:31.021Z,100038.47
2022-08-18T16:37:03.563Z,100035.90
2022-08-18T16:39:36.735Z,100038.55
2022-08-18T16:42:09.150Z,100042.39
2022-08-18T16:44:41.339Z,100048.35
2022-08-18T16:47:14.386Z,100040.27
2022-08-18T16:49:50.911Z,100041.61
2022-08-18T16:52:23.760Z,100040.87
2022-08-18T16:54:57.531Z,100040.99
2022-08-18T16:57:53.743Z,100053.99
2022-08-18T17:00:39.623Z,100056.98
2022-08-18T17:03:33.250Z,100059.95
2022-08-18T17:06:11.974Z,100057.71
2022-08-18T17:08:44.985Z,100052.14
2022-08-18T17:11:20.354Z,100057.45
2022-08-18T17:13:54.403Z,100064.83
2022-08-18T17:16:29.811Z,100070.95
2022-08-18T17:19:03.772Z,100075.55
2022-08-18T17:21:37.757Z,100071.27
2022-08-18T17:24:11.661Z,100071.83
2022-08-18T17:27:00.328Z,100072.55
2022-08-18T17:29:37.474Z,100078.69
2022-08-18T17:32:13.009Z,100076.06
2022-08-18T17:34:49.759Z,100077.27
2022-08-18T17:37:25.500Z,100084.23
2022-08-18T17:40:04.353Z,100090.66
2022-08-18T17:42:40.147Z,100085.44
2022-08-18T17:45:21.492Z,100090.34
2022-08-18T17:47:59.749Z,100090.72
2022-08-18T17:50:55.681Z,100084.65
2022-08-18T17:53:29.905Z,100087.84
2022-08-18T17:56:20.579Z,100088.66
2022-08-18T17:58:58.565Z,100082.23
2022-08-18T18:01:32.193Z,100100.48
2022-08-18T18:04:07.878Z,100097.31
2022-08-18T18:06:43.492Z,100102.56
2022-08-18T18:09:26.307Z,100098.72
2022-08-18T18:12:00.504Z,100100.92
2022-08-18T18:14:41.689Z,100097.93
2022-08-18T18:17:28.907Z,100100.38
2022-08-18T18:20:22.076Z,100108.86
2022-08-18T18:22:54.751Z,100109.59
2022-08-18T18:25:34.824Z,100110.66
2022-08-18T18:28:07.523Z,100113.52
2022-08-18T18:30:39.675Z,100107.45
2022-08-18T18:33:18.402Z,100102.61
2022-08-18T18:36:00.843Z,100108.48
2022-08-18T18:38:39.091Z,100116.25
2022-08-18T18:41:17.175Z,100113.77
2022-08-18T18:43:52.189Z,100112.60
2022-08-18T18:46:36.454Z,100124.42
2022-08-18T18:49:21.860Z,100123.59
2022-08-18T18:51:56.843Z,100128.16
2022-08-18T18:54:52.969Z,100126.66
2022-08-18T18:57:32.432Z,100125.82
2022-08-18T19:00:13.457Z,100125.19
2022-08-18T19:02:52.096Z,100122.64
2022-08-18T19:05:32.541Z,100122.12
2022-08-18T19:08:27.704Z,100118.09
2022-08-18T19:11:02.841Z,100117.59
2022-08-18T19:13:37.897Z,100126.36
2022-08-18T19:16:23.894Z,100131.74
2022-08-18T19:19:35.978Z,100120.78
2022-08-18T19:22:03.774Z,100125.99
2022-08-18T19:24:24.149Z,100133.57
2022-08-18T19:26:58.920Z,100131.05
2022-08-18T19:29:34.110Z,100137.28
2022-08-18T19:32:16.735Z,100136.59
2022-08-18T19:34:52.484Z,100147.52
2022-08-18T19:37:32.713Z,100147.03
2022-08-18T19:40:10.864Z,100144.51
2022-08-18T19:42:49.037Z,100152.75
2022-08-18T19:45:35.999Z,100156.78
2022-08-18T19:48:18.392Z,100157.31
2022-08-18T19:50:56.019Z,100166.73
2022-08-18T19:53:52.291Z,100169.74
2022-08-18T19:56:24.079Z,100178.30
2022-08-18T19:59:18.676Z,100176.80
2022-08-18T20:01:41.861Z,100176.45
2022-08-18T20:04:39.720Z,100182.16
2022-08-18T20:07:20.795Z,100172.91
2022-08-18T20:10:28.810Z,100178.64
2022-08-18T20:13:26.220Z,100175.42
2022-08-18T20:16:11.818Z,100188.37
2022-08-18T20:18:46.383Z,100183.60
2022-08-18T20:21:21.349Z,100188.48
2022-08-18T20:24:08.838Z,100191.84
2022-08-18T20:26:44.313Z,100194.34
2022-08-18T20:29:19.212Z,100191.98
2022-08-18T20:32:00.461Z,100202.19
2022-08-18T20:34:35.669Z,100199.85
2022-08-18T20:37:10.524Z,100209.25
2022-08-18T20:39:43.267Z,100209.87
2022-08-18T20:42:27.006Z,100214.97
2022-08-18T20:45:03.547Z,100210.23
2022-08-18T20:47:53.688Z,100218.59
2022-08-18T20:50:50.417Z,100220.94
2022-08-18T20:53:41.733Z,100228.61
2022-08-18T20:56:32.403Z,100222.22
2022-08-18T20:59:10.127Z,100231.72
2022-08-18T21:01:42.312Z,100235.03
2022-08-18T21:04:14.529Z,100228.13
2022-08-18T21:06:46.811Z,100238.52
2022-08-18T21:09:19.693Z,100239.84
2022-08-18T21:11:52.571Z,100242.83
2022-08-18T21:14:31.886Z,100263.95
2022-08-18T21:17:08.991Z,100258.73
2022-08-18T21:19:43.514Z,100254.37
2022-08-18T21:22:14.605Z,100255.83
2022-08-18T21:24:49.155Z,100262.63
2022-08-18T21:27:37.644Z,100256.63
2022-08-18T21:30:21.973Z,100265.84
2022-08-18T21:32:55.266Z,100265.28
2022-08-18T21:35:38.208Z,100259.03
2022-08-18T21:38:12.565Z,100258.11
2022-08-18T21:40:50.351Z,100267.05
2022-08-18T21:43:48.856Z,100267.84
2022-08-18T21:46:29.977Z,100265.90
2022-08-18T21:49:04.748Z,100281.09
2022-08-18T21:51:49.517Z,100277.31
2022-08-18T21:54:28.098Z,100276.08
2022-08-18T21:57:22.715Z,100280.20
2022-08-18T22:00:23.066Z,100290.40
2022-08-18T22:03:13.345Z,100287.34
2022-08-18T22:06:03.587Z,100279.05
2022-08-18T22:08:38.760Z,100295.04
2022-08-18T22:11:52.009Z,100293.91
2022-08-18T22:14:35.797Z,100295.80
2022-08-18T22:17:25.640Z,100292.88
2022-08-18T22:19:59.250Z,100295.98
2022-08-18T22:22:51.051Z,100299.95
2022-08-18T22:25:24.372Z,100297.02
2022-08-18T22:27:57.103Z,100293.08
2022-08-18T22:30:29.358Z,100298.72
2022-08-18T22:33:02.201Z,100284.08
2022-08-18T22:35:34.205Z,100283.39
2022-08-18T22:38:06.445Z,100289.61
2022-08-18T22:40:38.596Z,100286.22
2022-08-18T22:43:10.728Z,100292.11
2022-08-18T22:45:42.836Z,100292.56
2022-08-18T22:48:16.328Z,100300.60
2022-08-18T22:50:51.170Z,100297.06
2022-08-18T22:53:22.345Z,100301.45
2022-08-18T22:55:54.454Z,100299.46
2022-08-18T22:58:29.496Z,100290.43
2022-08-18T23:01:05.692Z,100296.64
2022-08-18T23:03:41.723Z,100290.29
2022-08-18T23:06:10.766Z,100292.83
2022-08-18T23:08:54.689Z,100294.65
2022-08-18T23:11:16.937Z,100294.51
2022-08-18T23:13:49.267Z,100294.91
2022-08-18T23:16:30.567Z,100300.12
2022-08-18T23:18:56.060Z,100306.19
2022-08-18T23:21:34.245Z,100312.94
2022-08-18T23:24:02.087Z,100317.70
2022-08-18T23:26:37.344Z,100310.38
2022-08-18T23:29:18.508Z,100309.77
2022-08-18T23:31:52.651Z,100304.13
2022-08-18T23:34:27.305Z,100309.05
2022-08-18T23:37:01.580Z,100304.91
2022-08-18T23:39:35.732Z,100316.73
2022-08-18T23:42:09.960Z,100322.66
2022-08-18T23:44:42.401Z,100319.02
2022-08-18T23:47:14.751Z,100327.30
2022-08-18T23:49:47.045Z,100324.63
2022-08-18T23:52:19.155Z,100332.66
2022-08-18T23:54:51.167Z,100329.98
2022-08-18T23:57:23.340Z,100339.84
2022-08-18T23:59:56.840Z,100335.92
